Bookmark and Share
Track history (hours):
 

Circle Line Brooklyn

More information available from US FCC via Universal Licensing System and Coast Guard Vessel Documentation Center.

Last reported at 2014-Apr-15 21:33 UTC. Time now 2014-Apr-17 12:47 UTC.
Position N 40°45' W 074°01'.

MMSI: 367402250.

NotesDate/timePositionNaut miles runAvg speedWind from/ knotsBaromVisibWave heightAir tempDewpointWater temp
2014-Apr-15 21:33N 40°45' W 074°01'4 3.8
2014-Apr-15 20:33N 40°41' W 074°03'3 1.4
2014-Apr-15 18:33N 40°44' W 074°01'3 2.5
2014-Apr-15 17:32N 40°41' W 074°03'5 2.0
2014-Apr-15 15:08N 40°46' W 074°00'4 6.7
2014-Apr-15 14:34N 40°42' W 074°02'0 0.0
2014-Apr-14 20:34N 40°42' W 074°01'1 1.0
2014-Apr-14 19:34N 40°42' W 074°02'3 0.8
2014-Apr-14 15:34N 40°43' W 073°58'4 0.2
2014-Apr-13 21:24N 40°46' W 074°00'3 3.0
2014-Apr-13 20:21N 40°47' W 073°56'7 9.1
2014-Apr-13 19:33N 40°42' W 074°02'5 3.5
2014-Apr-13 18:09N 40°46' W 074°00'2 1.4
2014-Apr-13 16:33N 40°45' W 073°58'2 0.1
2014-Apr-13 02:29N 40°46' W 074°00'3 3.7
2014-Apr-13 01:34N 40°43' W 073°59'3 3.4
2014-Apr-13 00:33N 40°46' W 074°00'3 0.3
2014-Apr-12 15:33N 40°43' W 074°01'3 1.2
2014-Apr-12 13:14N 40°46' W 074°00'0 0.0
2014-Apr-12 12:32N 40°46' W 074°00'3 0.1
2014-Apr-10 21:25N 40°48' W 073°59'2 2.6
2014-Apr-10 20:28N 40°49' W 073°56'1010.6
2014-Apr-10 19:33N 40°41' W 074°03'4 1.5
2014-Apr-10 16:33N 40°44' W 073°58'3 0.1
2014-Apr-08 21:32N 40°45' W 074°01'4 3.7
2014-Apr-08 20:33N 40°41' W 074°02'3 1.6
2014-Apr-08 18:32N 40°44' W 074°01'3 3.3
2014-Apr-08 17:34N 40°41' W 074°02'5 2.0
2014-Apr-08 15:06N 40°46' W 074°00'5 8.7
2014-Apr-08 14:33N 40°41' W 074°02'5 0.3
2014-Apr-07 21:33N 40°46' W 074°00'6 6.2
2014-Apr-07 20:33N 40°51' W 073°56'1111.3
2014-Apr-07 19:34N 40°41' W 074°03'5 1.5
2014-Apr-07 16:32N 40°44' W 073°58'2 1.0
2014-Apr-07 14:17N 40°46' W 074°00'2 0.1
2014-Apr-07 00:33N 40°44' W 074°01'2 2.3
2014-Apr-06 23:33N 40°42' W 073°59'4 1.8
2014-Apr-06 21:22N 40°46' W 074°00'2 1.9
2014-Apr-06 20:10N 40°45' W 073°57'5 7.9
2014-Apr-06 19:33N 40°42' W 074°02'5 3.5
2014-Apr-06 18:11N 40°46' W 074°00'2 1.4
2014-Apr-06 16:33N 40°45' W 073°58'2 0.2
2014-Apr-06 03:31N 40°44' W 074°01'3 3.3
2014-Apr-06 02:33N 40°41' W 074°03'  

Dump ship's entire track history

sailing weather and tide predictions

Circle Line Brooklyn — WDE8160 — position and weather